Wetterdaten: Woche 28.01.02 - 03.02.02 (KW5)
Datum Zeit Temperatur Luftfeuchte Luftdruck Regenmenge Wind Richtung Taupunkt Windchill
28.01.2002 00:00 10.6 C 76 % 1026.2 hPa 0.0 l/m 17.0 km/h (3 Bft) W 6.5 C 10.6 C
28.01.2002 01:00 10.9 C 72 % 1026.2 hPa 0.0 l/m 14.4 km/h (3 Bft) W 6.1 C 10.9 C
28.01.2002 02:00 10.7 C 72 % 1027.2 hPa 0.0 l/m 10.7 km/h (2 Bft) W 5.7 C 10.7 C
28.01.2002 03:00 10.6 C 68 % 1027.2 hPa 0.0 l/m 7.9 km/h (2 Bft) W 5.0 C 10.6 C
28.01.2002 04:00 10.7 C 65 % 1027.2 hPa 0.0 l/m 21.1 km/h (4 Bft) W 4.4 C 10.7 C
28.01.2002 05:00 10.7 C 63 % 1027.2 hPa 0.0 l/m 13.8 km/h (3 Bft) W 3.8 C 10.7 C
28.01.2002 06:00 9.9 C 63 % 1027.2 hPa 0.0 l/m 9.7 km/h (2 Bft) SO 3.2 C 9.0 C
28.01.2002 07:00 9.6 C 65 % 1027.4 hPa 0.0 l/m 10.9 km/h (2 Bft) SO 3.3 C 8.5 C
28.01.2002 08:00 9.1 C 67 % 1028.3 hPa 0.0 l/m 12.6 km/h (3 Bft) SO 3.2 C 7.3 C
28.01.2002 09:00 9.7 C 63 % 1028.9 hPa 0.0 l/m 8.9 km/h (2 Bft) S 2.9 C 8.5 C
28.01.2002 10:00 10.4 C 61 % 1029.3 hPa 0.0 l/m 9.7 km/h (2 Bft) SO 3.2 C 10.1 C
28.01.2002 11:00 11.6 C 59 % 1029.3 hPa 0.0 l/m 9.8 km/h (2 Bft) SO 3.8 C 11.6 C
28.01.2002 12:00 11.9 C 61 % 1029.3 hPa 0.0 l/m 10.9 km/h (2 Bft) SO 4.5 C 11.9 C
28.01.2002 13:00 12.2 C 60 % 1029.3 hPa 0.0 l/m 11.6 km/h (2 Bft) SO 4.8 C 12.2 C
28.01.2002 14:00 13.8 C 56 % 1030.2 hPa 0.0 l/m 13.8 km/h (3 Bft) W 5.2 C 13.8 C
28.01.2002 15:00 13.7 C 54 % 1030.4 hPa 0.0 l/m 10.0 km/h (2 Bft) S-SW 4.6 C 13.7 C
28.01.2002 16:00 13.1 C 57 % 1031.1 hPa 0.0 l/m 10.3 km/h (2 Bft) S 4.7 C 13.1 C
28.01.2002 17:00 12.3 C 60 % 1031.9 hPa 0.0 l/m 11.1 km/h (2 Bft) W 4.8 C 12.3 C
28.01.2002 18:00 11.4 C 63 % 1032.5 hPa 0.0 l/m 5.7 km/h (1 Bft) SO 4.7 C 11.4 C
28.01.2002 19:00 11.1 C 65 % 1032.5 hPa 0.0 l/m 0.9 km/h (0 Bft) SO 4.7 C 11.1 C
28.01.2002 20:00 9.2 C 73 % 1032.5 hPa 0.0 l/m 3.9 km/h (1 Bft) W-NW 4.6 C 8.9 C
28.01.2002 21:00 9.3 C 75 % 1032.5 hPa 0.0 l/m 12.2 km/h (2 Bft) W-NW 5.1 C 7.5 C
28.01.2002 22:00 9.7 C 74 % 1033.5 hPa 0.0 l/m 15.9 km/h (3 Bft) W-NW 5.4 C 7.6 C
28.01.2002 23:00 8.6 C 79 % 1033.5 hPa 0.0 l/m 6.0 km/h (2 Bft) O-SO 5.1 C 7.7 C
29.01.2002 00:00 7.2 C 84 % 1033.6 hPa 0.0 l/m 2.5 km/h (1 Bft) SO 4.7 C 6.9 C
29.01.2002 01:00 5.8 C 87 % 1033.7 hPa 0.0 l/m 6.2 km/h (2 Bft) SO 3.8 C 4.6 C
29.01.2002 02:00 4.5 C 88 % 1034.2 hPa 0.0 l/m 4.8 km/h (1 Bft) O-SO 2.7 C 3.3 C
29.01.2002 03:00 3.4 C 93 % 1033.7 hPa 0.0 l/m 9.0 km/h (2 Bft) O-SO 2.4 C 1.1 C
29.01.2002 04:00 2.0 C 93 % 1033.5 hPa 0.0 l/m 1.7 km/h (1 Bft) O-SO 0.9 C 1.7 C
29.01.2002 05:00 1.0 C 94 % 1032.8 hPa 0.0 l/m 0.8 km/h (0 Bft) O-SO 0.2 C 1.0 C
29.01.2002 06:00 1.0 C 95 % 1032.5 hPa 0.0 l/m 1.3 km/h (1 Bft) O-SO 0.4 C 0.9 C
29.01.2002 07:00 1.6 C 97 % 1032.2 hPa 0.0 l/m 0.1 km/h (0 Bft) N 1.2 C 1.6 C
29.01.2002 08:00 1.7 C 97 % 1031.4 hPa 0.0 l/m 3.7 km/h (1 Bft) O-SO 1.3 C 0.9 C
29.01.2002 09:00 2.0 C 97 % 1031.5 hPa 0.0 l/m 4.5 km/h (1 Bft) SO 1.6 C 0.9 C
29.01.2002 10:00 2.6 C 97 % 1032.4 hPa 0.0 l/m 2.3 km/h (1 Bft) SO 2.1 C 2.1 C
29.01.2002 11:00 4.5 C 87 % 1032.5 hPa 0.0 l/m 4.5 km/h (1 Bft) SW 2.4 C 3.5 C
29.01.2002 12:00 5.8 C 76 % 1032.2 hPa 0.0 l/m 8.7 km/h (2 Bft) SO 1.9 C 4.0 C
29.01.2002 13:00 7.1 C 69 % 1031.4 hPa 0.0 l/m 11.9 km/h (2 Bft) SO 1.8 C 5.0 C
29.01.2002 14:00 7.8 C 69 % 1031.4 hPa 0.0 l/m 16.0 km/h (3 Bft) SO 2.3 C 5.2 C
29.01.2002 15:00 8.5 C 68 % 1030.4 hPa 0.0 l/m 11.3 km/h (2 Bft) SO 2.9 C 6.8 C
29.01.2002 16:00 7.6 C 71 % 1030.8 hPa 0.0 l/m 10.2 km/h (2 Bft) O-SO 2.6 C 5.8 C
29.01.2002 17:00 5.9 C 76 % 1031.4 hPa 0.0 l/m 8.1 km/h (2 Bft) O-SO 2.1 C 4.2 C
29.01.2002 18:00 4.7 C 81 % 1031.4 hPa 0.0 l/m 7.6 km/h (2 Bft) O-SO 1.7 C 3.0 C
29.01.2002 19:00 3.9 C 83 % 1031.4 hPa 0.0 l/m 5.1 km/h (1 Bft) O-SO 1.3 C 2.7 C
29.01.2002 20:00 1.8 C 89 % 1031.4 hPa 0.0 l/m 0.0 km/h (0 Bft) N 0.2 C 1.8 C
29.01.2002 21:00 1.0 C 92 % 1031.4 hPa 0.0 l/m 0.1 km/h (0 Bft) O-SO -0.0 C 1.0 C
29.01.2002 22:00 0.4 C 94 % 1031.4 hPa 0.0 l/m 1.9 km/h (1 Bft) O-SO -0.5 C 0.2 C
29.01.2002 23:00 0.0 C 94 % 1031.4 hPa 0.0 l/m 2.5 km/h (1 Bft) O-SO -0.8 C -0.4 C
30.01.2002 00:00 -0.3 C 95 % 1031.4 hPa 0.0 l/m 3.3 km/h (1 Bft) O-SO -1.0 C -1.2 C
30.01.2002 01:00 -0.7 C 95 % 1031.4 hPa 0.0 l/m 0.0 km/h (0 Bft) N -1.5 C -0.7 C
30.01.2002 02:00 -0.2 C 96 % 1031.4 hPa 0.0 l/m 1.0 km/h (0 Bft) O-SO -0.7 C -0.2 C
30.01.2002 03:00 0.2 C 97 % 1030.5 hPa 0.0 l/m 0.0 km/h (0 Bft) N -0.2 C 0.2 C
30.01.2002 04:00 0.1 C 97 % 1030.4 hPa 0.0 l/m 2.1 km/h (1 Bft) O-SO -0.3 C -0.1 C
30.01.2002 05:00 -0.2 C 97 % 1030.4 hPa 0.0 l/m 1.4 km/h (1 Bft) O-SO -0.5 C -0.4 C
30.01.2002 06:00 -0.3 C 97 % 1030.4 hPa 0.0 l/m 1.0 km/h (0 Bft) O-SO -0.7 C -0.3 C
30.01.2002 07:00 -0.6 C 97 % 1029.5 hPa 0.0 l/m 2.3 km/h (1 Bft) O-SO -1.0 C -1.0 C
30.01.2002 08:00 -0.5 C 97 % 1029.3 hPa 0.0 l/m 1.6 km/h (1 Bft) O-SO -0.9 C -0.5 C
30.01.2002 09:00 -0.2 C 97 % 1029.3 hPa 0.0 l/m 0.4 km/h (0 Bft) O-SO -0.6 C -0.2 C
30.01.2002 10:00 0.5 C 97 % 1029.3 hPa 0.0 l/m 0.3 km/h (0 Bft) O-SO 0.1 C 0.5 C
30.01.2002 11:00 1.6 C 94 % 1028.3 hPa 0.0 l/m 0.0 km/h (0 Bft) N 0.7 C 1.6 C
30.01.2002 12:00 3.6 C 84 % 1027.4 hPa 0.0 l/m 0.6 km/h (0 Bft) O 1.1 C 3.5 C
30.01.2002 13:00 6.8 C 73 % 1026.1 hPa 0.0 l/m 1.3 km/h (1 Bft) O-SO 2.3 C 6.6 C
30.01.2002 14:00 9.7 C 57 % 1024.9 hPa 0.0 l/m 2.9 km/h (1 Bft) S-SW 1.7 C 9.4 C
30.01.2002 15:00 10.9 C 52 % 1024.1 hPa 0.0 l/m 2.2 km/h (1 Bft) O-SO 1.5 C 10.9 C
30.01.2002 16:00 9.7 C 57 % 1023.5 hPa 0.0 l/m 0.1 km/h (0 Bft) N 1.6 C 9.7 C
30.01.2002 17:00 6.8 C 66 % 1023.0 hPa 0.0 l/m 0.0 km/h (0 Bft) N 0.9 C 6.8 C
30.01.2002 18:00 4.8 C 76 % 1023.0 hPa 0.0 l/m 0.0 km/h (0 Bft) N 0.9 C 4.8 C
30.01.2002 19:00 3.0 C 82 % 1023.0 hPa 0.0 l/m 0.7 km/h (0 Bft) SO 0.3 C 2.9 C
30.01.2002 20:00 1.5 C 89 % 1023.0 hPa 0.0 l/m 1.3 km/h (1 Bft) SO -0.1 C 1.4 C
30.01.2002 21:00 0.5 C 92 % 1023.0 hPa 0.0 l/m 0.0 km/h (0 Bft) N -0.7 C 0.5 C
30.01.2002 22:00 -0.1 C 93 % 1023.0 hPa 0.0 l/m 0.6 km/h (0 Bft) SO -1.1 C -0.1 C
30.01.2002 23:00 -0.4 C 93 % 1023.0 hPa 0.0 l/m 1.4 km/h (1 Bft) O-SO -1.4 C -0.9 C
31.01.2002 00:00 -0.6 C 94 % 1023.0 hPa 0.0 l/m 0.5 km/h (0 Bft) O-SO -1.5 C -0.7 C
31.01.2002 01:00 -1.3 C 94 % 1023.0 hPa 0.0 l/m 0.0 km/h (0 Bft) N -2.1 C -1.3 C
31.01.2002 02:00 -1.3 C 95 % 1023.0 hPa 0.0 l/m 0.0 km/h (0 Bft) N -2.0 C -1.3 C
31.01.2002 03:00 -1.0 C 95 % 1023.0 hPa 0.0 l/m 0.3 km/h (0 Bft) O-SO -1.7 C -1.1 C
31.01.2002 04:00 -1.0 C 95 % 1023.0 hPa 0.0 l/m 0.2 km/h (0 Bft) NO -1.6 C -1.0 C
31.01.2002 05:00 -0.5 C 96 % 1023.7 hPa 0.0 l/m 2.5 km/h (1 Bft) O-SO -1.0 C -1.3 C
31.01.2002 06:00 0.9 C 96 % 1024.1 hPa 0.0 l/m 7.9 km/h (2 Bft) SO 0.3 C -1.4 C
31.01.2002 07:00 2.1 C 94 % 1024.8 hPa 0.0 l/m 7.1 km/h (2 Bft) SO 1.2 C 0.2 C
31.01.2002 08:00 2.7 C 92 % 1025.2 hPa 0.0 l/m 1.8 km/h (1 Bft) O-SO 1.5 C 2.4 C
31.01.2002 09:00 4.3 C 84 % 1025.8 hPa 0.0 l/m 5.2 km/h (1 Bft) SO 1.9 C 3.3 C
31.01.2002 10:00 6.0 C 70 % 1026.2 hPa 0.0 l/m 4.3 km/h (1 Bft) O-SO 1.0 C 5.4 C
31.01.2002 11:00 6.9 C 68 % 1026.2 hPa 0.0 l/m 0.6 km/h (0 Bft) NO 1.5 C 6.9 C
31.01.2002 12:00 9.9 C 56 % 1026.0 hPa 0.0 l/m 5.2 km/h (1 Bft) W 1.3 C 9.9 C
31.01.2002 13:00 11.5 C 49 % 1025.1 hPa 0.0 l/m 2.0 km/h (1 Bft) SO 1.2 C 11.5 C
31.01.2002 14:00 11.2 C 53 % 1025.1 hPa 0.0 l/m 3.1 km/h (1 Bft) W 2.0 C 11.2 C
31.01.2002 15:00 11.0 C 57 % 1025.1 hPa 0.0 l/m 1.3 km/h (1 Bft) W 2.7 C 11.0 C
31.01.2002 16:00 9.9 C 62 % 1025.1 hPa 0.0 l/m 2.5 km/h (1 Bft) O-SO 2.9 C 9.9 C
31.01.2002 17:00 7.7 C 70 % 1025.7 hPa 0.0 l/m 2.1 km/h (1 Bft) O-SO 2.6 C 7.3 C
31.01.2002 18:00 6.7 C 73 % 1025.6 hPa 0.0 l/m 3.2 km/h (1 Bft) O-SO 2.2 C 6.4 C
31.01.2002 19:00 6.2 C 74 % 1026.2 hPa 0.0 l/m 7.1 km/h (2 Bft) O-SO 2.0 C 4.8 C
31.01.2002 20:00 5.6 C 79 % 1026.2 hPa 0.0 l/m 4.9 km/h (1 Bft) O 2.2 C 4.7 C
31.01.2002 21:00 5.2 C 78 % 1026.2 hPa 0.0 l/m 2.8 km/h (1 Bft) O 1.7 C 4.9 C
31.01.2002 22:00 3.9 C 84 % 1026.2 hPa 0.0 l/m 1.9 km/h (1 Bft) O-SO 1.4 C 3.6 C
31.01.2002 23:00 3.0 C 90 % 1026.3 hPa 0.0 l/m 2.3 km/h (1 Bft) O-SO 1.5 C 2.4 C
01.02.2002 00:00 3.4 C 88 % 1027.2 hPa 0.0 l/m 1.8 km/h (1 Bft) O 1.6 C 3.1 C
01.02.2002 01:00 3.5 C 88 % 1027.2 hPa 0.0 l/m 0.0 km/h (0 Bft) N 1.7 C 3.5 C
01.02.2002 02:00 3.5 C 89 % 1027.2 hPa 0.0 l/m 1.3 km/h (1 Bft) O-SO 1.9 C 3.3 C
01.02.2002 03:00 3.8 C 88 % 1027.2 hPa 0.0 l/m 0.9 km/h (0 Bft) O-SO 2.0 C 3.8 C
01.02.2002 04:00 3.6 C 88 % 1027.2 hPa 0.0 l/m 0.7 km/h (0 Bft) O-SO 1.9 C 3.6 C
01.02.2002 05:00 3.7 C 88 % 1027.2 hPa 0.0 l/m 0.7 km/h (0 Bft) O-SO 1.9 C 3.6 C
01.02.2002 06:00 3.8 C 88 % 1027.2 hPa 0.0 l/m 1.1 km/h (1 Bft) SO 2.0 C 3.7 C
01.02.2002 07:00 3.8 C 89 % 1028.0 hPa 0.0 l/m 1.4 km/h (1 Bft) O-SO 2.1 C 3.6 C
01.02.2002 08:00 4.2 C 88 % 1028.3 hPa 0.0 l/m 7.0 km/h (2 Bft) O-SO 2.4 C 2.6 C
01.02.2002 09:00 5.2 C 81 % 1028.6 hPa 0.0 l/m 1.8 km/h (1 Bft) SO 2.2 C 4.9 C
01.02.2002 10:00 6.2 C 77 % 1029.3 hPa 0.0 l/m 0.7 km/h (0 Bft) O 2.4 C 6.2 C
01.02.2002 11:00 8.5 C 66 % 1029.8 hPa 0.0 l/m 1.4 km/h (1 Bft) W 2.5 C 8.4 C
01.02.2002 12:00 8.9 C 66 % 1030.2 hPa 0.0 l/m 0.5 km/h (0 Bft) W-NW 2.9 C 8.9 C
01.02.2002 13:00 11.0 C 56 % 1029.3 hPa 0.0 l/m 0.4 km/h (0 Bft) W-NW 2.6 C 11.0 C
01.02.2002 14:00 11.7 C 57 % 1029.3 hPa 0.0 l/m 0.5 km/h (0 Bft) NW 3.5 C 11.7 C
01.02.2002 15:00 11.7 C 58 % 1029.3 hPa 0.0 l/m 5.2 km/h (1 Bft) W-NW 3.7 C 11.7 C
01.02.2002 16:00 10.7 C 65 % 1029.3 hPa 0.0 l/m 3.5 km/h (1 Bft) W-NW 4.2 C 10.7 C
01.02.2002 17:00 9.9 C 68 % 1030.1 hPa 0.0 l/m 0.9 km/h (0 Bft) W-NW 4.2 C 9.9 C
01.02.2002 18:00 9.0 C 70 % 1030.4 hPa 0.0 l/m 2.8 km/h (1 Bft) O-SO 3.7 C 8.7 C
01.02.2002 19:00 7.1 C 77 % 1030.4 hPa 0.0 l/m 7.3 km/h (2 Bft) O-SO 3.3 C 5.9 C
01.02.2002 20:00 5.2 C 83 % 1030.4 hPa 0.0 l/m 3.1 km/h (1 Bft) O-SO 2.5 C 4.7 C
01.02.2002 21:00 3.7 C 89 % 1030.4 hPa 0.0 l/m 1.5 km/h (1 Bft) O 2.0 C 3.6 C
01.02.2002 22:00 2.8 C 92 % 1030.4 hPa 0.0 l/m 0.4 km/h (0 Bft) O-SO 1.6 C 2.8 C
01.02.2002 23:00 1.9 C 93 % 1030.7 hPa 0.0 l/m 0.4 km/h (0 Bft) O-SO 0.9 C 1.9 C
02.02.2002 00:00 1.3 C 94 % 1031.4 hPa 0.0 l/m 1.1 km/h (1 Bft) O-SO 0.5 C 1.2 C
02.02.2002 01:00 1.0 C 95 % 1031.4 hPa 0.0 l/m 1.6 km/h (1 Bft) O 0.3 C 0.7 C
02.02.2002 02:00 0.4 C 95 % 1031.4 hPa 0.0 l/m 1.3 km/h (1 Bft) O-SO -0.2 C 0.2 C
02.02.2002 03:00 -0.3 C 95 % 1031.4 hPa 0.0 l/m 0.0 km/h (0 Bft) N -0.9 C -0.3 C
02.02.2002 04:00 -0.7 C 95 % 1031.4 hPa 0.0 l/m 0.0 km/h (0 Bft) N -1.4 C -0.7 C
02.02.2002 05:00 -1.2 C 95 % 1031.4 hPa 0.0 l/m 0.3 km/h (0 Bft) O-SO -1.9 C -1.2 C
02.02.2002 06:00 -1.2 C 96 % 1031.6 hPa 0.0 l/m 0.1 km/h (0 Bft) N -1.8 C -1.2 C
02.02.2002 07:00 -1.0 C 97 % 1032.4 hPa 0.0 l/m 0.9 km/h (0 Bft) O-SO -1.5 C -1.2 C
02.02.2002 08:00 -1.0 C 97 % 1032.5 hPa 0.0 l/m 0.3 km/h (0 Bft) O-SO -1.4 C -1.0 C
02.02.2002 09:00 -0.2 C 97 % 1032.5 hPa 0.0 l/m 0.3 km/h (0 Bft) O -0.6 C -0.2 C
02.02.2002 10:00 0.3 C 97 % 1032.5 hPa 0.0 l/m 0.6 km/h (0 Bft) SO -0.1 C 0.3 C
02.02.2002 11:00 2.2 C 96 % 1032.5 hPa 0.0 l/m 0.3 km/h (0 Bft) SW 1.6 C 2.1 C
02.02.2002 12:00 5.0 C 89 % 1032.0 hPa 0.0 l/m 0.1 km/h (0 Bft) N 3.3 C 5.0 C
02.02.2002 13:00 8.7 C 71 % 1031.2 hPa 0.0 l/m 0.1 km/h (0 Bft) N 3.7 C 8.7 C
02.02.2002 14:00 11.0 C 55 % 1030.4 hPa 0.0 l/m 0.4 km/h (0 Bft) O 2.2 C 11.0 C
02.02.2002 15:00 11.5 C 51 % 1029.6 hPa 0.0 l/m 0.3 km/h (0 Bft) W 1.8 C 11.5 C
02.02.2002 16:00 10.8 C 55 % 1029.3 hPa 0.0 l/m 1.1 km/h (0 Bft) W 2.2 C 10.8 C
02.02.2002 17:00 8.5 C 63 % 1029.3 hPa 0.0 l/m 0.0 km/h (0 Bft) S 1.8 C 8.5 C
02.02.2002 18:00 5.8 C 75 % 1029.3 hPa 0.0 l/m 2.4 km/h (1 Bft) O-SO 1.6 C 5.4 C
02.02.2002 19:00 4.2 C 83 % 1029.3 hPa 0.0 l/m 1.2 km/h (1 Bft) O-SO 1.5 C 4.0 C
02.02.2002 20:00 2.9 C 88 % 1029.3 hPa 0.0 l/m 0.3 km/h (0 Bft) O-SO 1.0 C 2.9 C
02.02.2002 21:00 1.9 C 91 % 1028.5 hPa 0.0 l/m 0.2 km/h (0 Bft) O-SO 0.6 C 1.9 C
02.02.2002 22:00 1.2 C 93 % 1029.0 hPa 0.0 l/m 0.9 km/h (0 Bft) O-SO 0.1 C 1.2 C
02.02.2002 23:00 0.4 C 93 % 1028.7 hPa 0.0 l/m 0.8 km/h (0 Bft) O-SO -0.6 C 0.2 C
03.02.2002 00:00 0.3 C 94 % 1028.9 hPa 0.0 l/m 2.0 km/h (1 Bft) O-SO -0.5 C -0.0 C
03.02.2002 01:00 -0.6 C 94 % 1028.3 hPa 0.0 l/m 0.0 km/h (0 Bft) N -1.4 C -0.6 C
03.02.2002 02:00 -0.9 C 94 % 1028.3 hPa 0.0 l/m 0.0 km/h (0 Bft) N -1.8 C -0.9 C
03.02.2002 03:00 -1.7 C 94 % 1028.3 hPa 0.0 l/m 0.4 km/h (0 Bft) O -2.5 C -1.7 C
03.02.2002 04:00 -2.0 C 94 % 1028.2 hPa 0.0 l/m 0.9 km/h (0 Bft) O -2.9 C -2.1 C
03.02.2002 05:00 -1.9 C 95 % 1027.8 hPa 0.0 l/m 0.8 km/h (0 Bft) O-SO -2.6 C -2.0 C
03.02.2002 06:00 -2.4 C 94 % 1027.2 hPa 0.0 l/m 0.3 km/h (0 Bft) O-SO -3.2 C -2.5 C
03.02.2002 07:00 -2.6 C 94 % 1027.2 hPa 0.0 l/m 1.3 km/h (1 Bft) O-SO -3.4 C -3.0 C
03.02.2002 08:00 -2.3 C 97 % 1027.2 hPa 0.0 l/m 1.0 km/h (0 Bft) O-SO -2.7 C -2.6 C
03.02.2002 09:00 -1.8 C 97 % 1027.2 hPa 0.0 l/m 0.0 km/h (0 Bft) N -2.2 C -1.8 C
03.02.2002 10:00 -0.7 C 97 % 1026.7 hPa 0.0 l/m 0.0 km/h (0 Bft) N -1.2 C -0.7 C
03.02.2002 11:00 1.1 C 96 % 1026.1 hPa 0.0 l/m 0.0 km/h (0 Bft) N 0.5 C 1.1 C
03.02.2002 12:00 4.6 C 86 % 1025.1 hPa 0.0 l/m 0.1 km/h (0 Bft) O 2.5 C 4.6 C
03.02.2002 13:00 9.1 C 70 % 1023.7 hPa 0.0 l/m 1.5 km/h (1 Bft) SO 3.8 C 9.1 C
03.02.2002 14:00 11.7 C 53 % 1022.8 hPa 0.0 l/m 5.9 km/h (2 Bft) SO 2.4 C 11.7 C
03.02.2002 15:00 12.3 C 50 % 1022.0 hPa 0.0 l/m 2.0 km/h (1 Bft) O-SO 2.2 C 12.3 C
03.02.2002 16:00 11.2 C 54 % 1021.4 hPa 0.0 l/m 0.2 km/h (0 Bft) W-NW 2.3 C 11.2 C
03.02.2002 17:00 8.1 C 65 % 1020.9 hPa 0.0 l/m 1.0 km/h (0 Bft) O-SO 1.9 C 8.0 C
03.02.2002 18:00 5.7 C 67 % 1020.9 hPa 0.0 l/m 0.3 km/h (0 Bft) O -0.1 C 5.7 C
03.02.2002 19:00 3.8 C 78 % 1020.9 hPa 0.0 l/m 1.5 km/h (1 Bft) O 0.4 C 3.5 C
03.02.2002 20:00 2.4 C 86 % 1020.9 hPa 0.0 l/m 1.5 km/h (1 Bft) O-SO 0.3 C 2.3 C
03.02.2002 21:00 1.8 C 87 % 1021.3 hPa 0.0 l/m 0.2 km/h (0 Bft) O-SO -0.2 C 1.8 C
03.02.2002 22:00 1.0 C 90 % 1021.8 hPa 0.0 l/m 0.2 km/h (0 Bft) O -0.4 C 1.0 C
03.02.2002 23:00 0.3 C 91 % 1022.9 hPa 0.0 l/m 0.6 km/h (0 Bft) O -0.9 C 0.2 C
Min-Datum _ 03.02.02 31.01.02 03.02.02 - 28.01.02 - 03.02.02 03.02.02
_ Min-Zeit 07:05 13:14 16:23 - 09:29 - 07:05 08:26
Minimum _ -2.9 C 47 % 1020.9 hPa - 0.0 km/h (0 Bft) - -3.9 C -6.5 C
Max-Datum _ 28.01.02 30.01.02 29.01.02 28.01.02 28.01.02 - 28.01.02 28.01.02
_ Max-Zeit 14:56 05:10 00:54 00:02 14:50 - 00:05 14:56
Maximum _ 14.5 C 98 % 1034.6 hPa 0.0 l/m 37.4 km/h
W (5 Bft)
- 6.9 C 14.5 C
Durchschnitt _ 4.7 C 81 % 1028.3 hPa #0.0 l/m 3.3 km/h (1 Bft) O-SO 1.4 C 4.4 C

Durchschnitt Minimum Temp.3.9 C
Durchschnitt Maximum Temp.5.5 C
© Kaiko 2002